Lake Village, IN (46349)

6:00 PM CDT on August 24, 2016 (GMT -0500)
Lincoln Township | | Change Station
Active Advisory: Flood Warning, Flood Advisory

Elev 692 ft 41.13 °N, 87.35 °W | Updated 21 seconds ago

Clear
Clear
82.9 °F
Feels Like 88 °F
N
0.9
Wind Variable Wind from West
Gusts 2.5 mph

Today
High -- | Low -- °F
--% Chance of Precip.
Yesterday
High -- | Low -- °F
Precip. -- in
Pressure 29.97 in
Visibility 10.0 miles
Clouds Clear
Heat Index 88 °F
Dew Point 73 °F
Humidity 71%
Rainfall 0.50 in
Snow Depth Not available.
6:08 AM 7:34 PM
Waning Gibbous, 52% visible
METAR KRZL 242255Z AUTO 26011G16KT 10SM CLR 27/21 A2997 RMK AO2 LTG DSNT E
Pressure 29.97 in
Visibility 10.0 miles
Clouds Clear
Heat Index 88 °F
Dew Point 73 °F
Humidity 71%
Rainfall 0.50 in
Snow Depth Not available.
6:08 AM 7:34 PM
Waning Gibbous, 52% visible
METAR KRZL 242255Z AUTO 26011G16KT 10SM CLR 27/21 A2997 RMK AO2 LTG DSNT E

10-Day Weather Forecast

Almanac

Astronomy

Aug. 24, 2016 Rise Set
Actual Time
Civil Twilight
Nautical Twilight
Astronomical Twilight
Moon
Length of Visible Light
Length of Day
Tomorrow will be .
, % of the Moon is Illuminated

Today's Extremes

State Highs State Lows

Community

WunderPhotos

Upload Photos

1,934,728 photos uploaded!

WunderBlog® & News

Nearby

Air Quality

  Air Quality AQ Index Pollutant
Not available.

Snow Depth

Station Depth Elevation

Earthquake Activity

City Distance Mag. Time & Date
Minimum magnitude displayed is 2.5.

Coastal Water Temperatures

Place Temperature

Stations

Nearby Weather Stations

Station Location Temp. Windchill Dew Point Humidity Wind Precip. Elev Updated Type
                   

Watches & Warnings

Flood Warning
Issued: 9:53 AM CDT Aug. 24, 2016 – National Weather Service

The Flood Warning continues for
the Kankakee River at Shelby.
* Until Tuesday morning.
* At 845 am Wednesday the stage was 10.3 feet.
* Flood stage is 9.0 feet.
* Minor flooding is occurring and minor flooding is forecast.
* Forecast... the river will continue to fall to below flood stage by
early Tuesday morning.
* Impact... at 10.0 feet... flooding affects County and local roads.
Wildwood Estates and Sumava Resorts begin to experience some
flooding.


Lat... Lon 4127 8727 4121 8756 4111 8753 4118 8722






Flood Advisory
Issued: 10:04 AM CDT Aug. 24, 2016 – National Weather Service

The Flood Advisory continues for
the Iroquois river near Foresman
* until Friday evening.
* At 945 am Wednesday the stage was 16.5 feet.
* Action stage is 15.0 feet.
* Flood stage is 18.0 feet.
* Forecast... the river will continue to fall.


Lat... Lon 4094 8727 4086 8749 4077 8746 4085 8723